C6058 KNTD-KNTD
Flight info
| Callsign | C6058 |
|---|---|
| Flight time | N/A |
| Altitude | 1500 |
| Route | DCT |
| Aircraft | MH60/M-DFGHIRTUVY/S |
Departure
| Time | 2026-05-05 23:51 |
|---|---|
| Airport | Point Mugu Naval Air Station (Naval Base Ventura Co) (KNTD) |
Arrival
| Time | N/A |
|---|---|
| Airport | Point Mugu Naval Air Station (Naval Base Ventura Co) (KNTD) |
| Time | Latitude | Longitude | Altitude | Speed | Heading |
|---|---|---|---|---|---|
| 2026-05-05 23:33 | 34.12875 | -119.10548 | 14 ft | 0 kts | 224° |
| 2026-05-05 23:50 | 34.12871 | -119.10555 | 52 ft | 2 kts | 216° |
| 2026-05-05 23:50 | 34.12822 | -119.10666 | 233 ft | 44 kts | 226° |
| 2026-05-05 23:51 | 34.12873 | -119.11311 | 547 ft | 103 kts | 278° |
| 2026-05-05 23:51 | 34.12666 | -119.12205 | 832 ft | 117 kts | 251° |
| 2026-05-05 23:51 | 34.12407 | -119.13172 | 718 ft | 124 kts | 261° |
| 2026-05-05 23:51 | 34.12316 | -119.14226 | 791 ft | 129 kts | 265° |
| 2026-05-05 23:52 | 34.12261 | -119.15313 | 792 ft | 130 kts | 268° |
| 2026-05-05 23:52 | 34.12223 | -119.16391 | 875 ft | 126 kts | 268° |
| 2026-05-05 23:52 | 34.12167 | -119.17440 | 1004 ft | 127 kts | 264° |
| 2026-05-05 23:52 | 34.12126 | -119.17893 | 1002 ft | 129 kts | 264° |
| 2026-05-05 23:53 | 34.12048 | -119.18764 | 968 ft | 130 kts | 265° |
| 2026-05-05 23:53 | 34.11987 | -119.19838 | 1006 ft | 127 kts | 268° |
| 2026-05-05 23:53 | 34.11964 | -119.20906 | 1050 ft | 127 kts | 270° |
| 2026-05-05 23:54 | 34.11978 | -119.21952 | 1156 ft | 122 kts | 272° |
| 2026-05-05 23:54 | 34.12021 | -119.22993 | 1190 ft | 126 kts | 275° |
| 2026-05-05 23:54 | 34.12075 | -119.24055 | 1196 ft | 130 kts | 275° |
| 2026-05-05 23:54 | 34.12147 | -119.25164 | 1186 ft | 133 kts | 276° |
| 2026-05-05 23:55 | 34.12211 | -119.26282 | 1190 ft | 134 kts | 272° |
| 2026-05-05 23:55 | 34.12129 | -119.27393 | 1236 ft | 133 kts | 264° |
| 2026-05-05 23:55 | 34.11982 | -119.28500 | 1260 ft | 133 kts | 262° |
| 2026-05-05 23:55 | 34.11800 | -119.29583 | 1303 ft | 129 kts | 262° |
| 2026-05-05 23:56 | 34.11656 | -119.30648 | 1391 ft | 129 kts | 265° |
| 2026-05-05 23:56 | 34.11544 | -119.31715 | 1500 ft | 126 kts | 267° |
| 2026-05-05 23:56 | 34.11462 | -119.32767 | 1625 ft | 130 kts | 266° |
| 2026-05-05 23:56 | 34.11321 | -119.33860 | 1568 ft | 135 kts | 263° |
| 2026-05-05 23:57 | 34.11087 | -119.34964 | 1552 ft | 137 kts | 257° |
| 2026-05-05 23:57 | 34.10831 | -119.36051 | 1589 ft | 133 kts | 259° |
| 2026-05-05 23:57 | 34.10650 | -119.37135 | 1645 ft | 131 kts | 264° |
| 2026-05-05 23:57 | 34.10541 | -119.38239 | 1647 ft | 134 kts | 267° |
| 2026-05-05 23:58 | 34.10465 | -119.39347 | 1698 ft | 130 kts | 269° |
| 2026-05-05 23:58 | 34.10433 | -119.40425 | 1814 ft | 129 kts | 273° |
| 2026-05-05 23:58 | 34.10385 | -119.41515 | 1853 ft | 130 kts | 268° |
| 2026-05-05 23:58 | 34.10307 | -119.42595 | 1885 ft | 131 kts | 268° |
| 2026-05-05 23:59 | 34.10217 | -119.43698 | 1910 ft | 133 kts | 266° |
| 2026-05-05 23:59 | 34.10107 | -119.44811 | 1934 ft | 134 kts | 268° |
| 2026-05-05 23:59 | 34.09992 | -119.45920 | 1975 ft | 132 kts | 266° |
| 2026-05-05 23:59 | 34.09856 | -119.47017 | 2005 ft | 132 kts | 265° |
| 2026-05-06 00:00 | 34.09721 | -119.48116 | 2031 ft | 131 kts | 266° |
| 2026-05-06 00:00 | 34.09631 | -119.49195 | 2091 ft | 129 kts | 269° |
| 2026-05-06 00:00 | 34.09525 | -119.50273 | 2143 ft | 130 kts | 267° |
| 2026-05-06 00:00 | 34.09405 | -119.51351 | 2190 ft | 130 kts | 267° |
| 2026-05-06 00:01 | 34.09337 | -119.51977 | 2219 ft | 130 kts | 267° |
| 2026-05-06 00:01 | 34.09296 | -119.52345 | 2235 ft | 130 kts | 267° |
| 2026-05-06 00:01 | 34.09184 | -119.53427 | 2276 ft | 130 kts | 268° |
| 2026-05-06 00:01 | 34.09060 | -119.54524 | 2253 ft | 134 kts | 265° |
| 2026-05-06 00:02 | 34.08905 | -119.55633 | 2194 ft | 136 kts | 265° |
| 2026-05-06 00:02 | 34.08793 | -119.56777 | 2122 ft | 139 kts | 267° |
| 2026-05-06 00:02 | 34.08702 | -119.57943 | 2061 ft | 141 kts | 269° |
| 2026-05-06 00:02 | 34.08625 | -119.59120 | 2087 ft | 140 kts | 269° |
| 2026-05-06 00:03 | 34.08510 | -119.60290 | 2134 ft | 140 kts | 266° |
| 2026-05-06 00:03 | 34.08392 | -119.61472 | 2120 ft | 143 kts | 268° |
| 2026-05-06 00:03 | 34.08325 | -119.62675 | 2095 ft | 143 kts | 271° |
| 2026-05-06 00:03 | 34.08287 | -119.63877 | 2089 ft | 144 kts | 270° |
| 2026-05-06 00:04 | 34.08226 | -119.65070 | 2051 ft | 145 kts | 268° |
| 2026-05-06 00:04 | 34.08086 | -119.66282 | 2005 ft | 145 kts | 266° |
| 2026-05-06 00:04 | 34.07986 | -119.67493 | 1998 ft | 144 kts | 267° |
| 2026-05-06 00:04 | 34.07863 | -119.68685 | 2046 ft | 143 kts | 266° |
| 2026-05-06 00:05 | 34.07602 | -119.71045 | 2086 ft | 143 kts | 265° |
| 2026-05-06 00:05 | 34.07474 | -119.72227 | 2104 ft | 140 kts | 268° |
| 2026-05-06 00:05 | 34.07411 | -119.73385 | 2189 ft | 137 kts | 272° |
| 2026-05-06 00:06 | 34.07376 | -119.74537 | 2240 ft | 138 kts | 271° |
| 2026-05-06 00:06 | 34.07343 | -119.75695 | 2273 ft | 139 kts | 272° |
| 2026-05-06 00:06 | 34.07339 | -119.76862 | 2295 ft | 139 kts | 275° |
| 2026-05-06 00:06 | 34.07339 | -119.78020 | 2311 ft | 140 kts | 271° |
| 2026-05-06 00:07 | 34.07269 | -119.79190 | 2331 ft | 140 kts | 269° |
| 2026-05-06 00:07 | 34.07178 | -119.80356 | 2351 ft | 139 kts | 268° |
| 2026-05-06 00:07 | 34.07074 | -119.81522 | 2382 ft | 141 kts | 269° |
| 2026-05-06 00:07 | 34.06979 | -119.82701 | 2397 ft | 139 kts | 267° |
| 2026-05-06 00:08 | 34.06855 | -119.83855 | 2462 ft | 138 kts | 267° |
| 2026-05-06 00:08 | 34.06762 | -119.84996 | 2489 ft | 138 kts | 271° |
| 2026-05-06 00:08 | 34.06734 | -119.86160 | 2509 ft | 140 kts | 270° |
| 2026-05-06 00:08 | 34.06622 | -119.87340 | 2592 ft | 142 kts | 268° |
| 2026-05-06 00:09 | 34.06504 | -119.88527 | 2646 ft | 142 kts | 269° |
| 2026-05-06 00:09 | 34.06437 | -119.89724 | 2710 ft | 145 kts | 273° |
| 2026-05-06 00:09 | 34.06421 | -119.90961 | 2651 ft | 149 kts | 274° |
| 2026-05-06 00:09 | 34.06391 | -119.92219 | 2640 ft | 152 kts | 272° |
| 2026-05-06 00:10 | 34.06291 | -119.93521 | 2677 ft | 159 kts | 269° |
| 2026-05-06 00:10 | 34.06170 | -119.94855 | 2642 ft | 161 kts | 268° |
| 2026-05-06 00:10 | 34.06039 | -119.96189 | 2637 ft | 161 kts | 268° |
| 2026-05-06 00:10 | 34.05915 | -119.97536 | 2512 ft | 161 kts | 268° |
| 2026-05-06 00:11 | 34.05834 | -119.98875 | 2427 ft | 160 kts | 271° |
| 2026-05-06 00:11 | 34.05791 | -120.00219 | 2319 ft | 161 kts | 271° |
| 2026-05-06 00:11 | 34.05762 | -120.01552 | 2293 ft | 156 kts | 271° |
| 2026-05-06 00:11 | 34.05730 | -120.02837 | 2311 ft | 156 kts | 272° |
| 2026-05-06 00:12 | 34.05712 | -120.04161 | 2238 ft | 159 kts | 272° |
| 2026-05-06 00:12 | 34.05678 | -120.05496 | 2194 ft | 159 kts | 272° |
| 2026-05-06 00:12 | 34.05682 | -120.06842 | 2084 ft | 163 kts | 274° |
| 2026-05-06 00:12 | 34.05677 | -120.08228 | 1843 ft | 165 kts | 273° |
| 2026-05-06 00:13 | 34.05663 | -120.09586 | 1791 ft | 160 kts | 272° |
| 2026-05-06 00:13 | 34.05669 | -120.10925 | 1778 ft | 157 kts | 275° |
| 2026-05-06 00:13 | 34.05779 | -120.12223 | 1794 ft | 157 kts | 277° |
| 2026-05-06 00:13 | 34.05848 | -120.13552 | 1723 ft | 160 kts | 275° |
| 2026-05-06 00:14 | 34.05877 | -120.14885 | 1642 ft | 161 kts | 273° |
| 2026-05-06 00:14 | 34.05893 | -120.16237 | 1554 ft | 161 kts | 273° |
| 2026-05-06 00:14 | 34.05905 | -120.17578 | 1550 ft | 157 kts | 272° |
| 2026-05-06 00:14 | 34.05875 | -120.18878 | 1662 ft | 154 kts | 270° |
| 2026-05-06 00:15 | 34.05843 | -120.20168 | 1723 ft | 153 kts | 272° |
| 2026-05-06 00:15 | 34.05830 | -120.21403 | 1679 ft | 143 kts | 272° |
| 2026-05-06 00:15 | 34.05808 | -120.22577 | 1668 ft | 138 kts | 271° |
| 2026-05-06 00:15 | 34.05773 | -120.23722 | 1683 ft | 136 kts | 270° |
| 2026-05-06 00:16 | 34.05679 | -120.24870 | 1627 ft | 138 kts | 266° |
| 2026-05-06 00:16 | 34.05611 | -120.26025 | 1596 ft | 138 kts | 270° |
| 2026-05-06 00:16 | 34.05563 | -120.27104 | 1421 ft | 120 kts | 270° |
| 2026-05-06 00:16 | 34.05523 | -120.28056 | 1459 ft | 111 kts | 270° |
| 2026-05-06 00:17 | 34.05472 | -120.28980 | 1367 ft | 108 kts | 268° |
| 2026-05-06 00:17 | 34.05434 | -120.29853 | 1324 ft | 99 kts | 271° |
| 2026-05-06 00:17 | 34.05426 | -120.30621 | 1111 ft | 85 kts | 276° |
| 2026-05-06 00:17 | 34.05474 | -120.31287 | 932 ft | 77 kts | 278° |
| 2026-05-06 00:18 | 34.05523 | -120.31914 | 812 ft | 71 kts | 276° |
| 2026-05-06 00:18 | 34.05519 | -120.32452 | 695 ft | 59 kts | 273° |
| 2026-05-06 00:18 | 34.05580 | -120.32918 | 527 ft | 52 kts | 275° |
| 2026-05-06 00:18 | 34.05639 | -120.33343 | 359 ft | 50 kts | 274° |
| 2026-05-06 00:19 | 34.05740 | -120.33670 | 222 ft | 41 kts | 277° |
| 2026-05-06 00:19 | 34.06022 | -120.33657 | 310 ft | 35 kts | 67° |
| 2026-05-06 00:19 | 34.05916 | -120.33496 | 221 ft | 13 kts | 129° |
| 2026-05-06 00:19 | 34.05873 | -120.33517 | 185 ft | 6 kts | 122° |
| 2026-05-06 00:20 | 34.05854 | -120.33520 | 154 ft | 1 kts | 120° |
| 2026-05-06 00:20 | 34.05853 | -120.33521 | 127 ft | 2 kts | 119° |
| 2026-05-06 00:20 | 34.05835 | -120.33512 | 116 ft | 3 kts | 119° |
| 2026-05-06 00:20 | 34.05819 | -120.33502 | 90 ft | 3 kts | 119° |
| 2026-05-06 00:21 | 34.05806 | -120.33490 | 64 ft | 0 kts | 119° |
| 2026-05-06 00:21 | 34.05803 | -120.33489 | 56 ft | 1 kts | 119° |
| 2026-05-06 00:21 | 34.05800 | -120.33486 | 48 ft | 1 kts | 119° |
| 2026-05-06 00:21 | 34.05801 | -120.33487 | 47 ft | 1 kts | 119° |
| 2026-05-06 00:22 | 34.05805 | -120.33487 | 44 ft | 1 kts | 120° |
| 2026-05-06 00:22 | 34.05816 | -120.33496 | 63 ft | 1 kts | 120° |
| 2026-05-06 00:22 | 34.05800 | -120.33470 | 152 ft | 6 kts | 120° |
| 2026-05-06 00:22 | 34.05794 | -120.33458 | 50 ft | 1 kts | 120° |
| 2026-05-06 00:23 | 34.05797 | -120.33459 | 43 ft | 1 kts | 120° |
| 2026-05-06 00:23 | 34.05797 | -120.33461 | 32 ft | 1 kts | 120° |
| 2026-05-06 00:23 | 34.05740 | -120.33391 | 49 ft | 1 kts | 120° |
| 2026-05-06 00:24 | 34.05760 | -120.33401 | 60 ft | 2 kts | 120° |
| 2026-05-06 00:24 | 34.05773 | -120.33433 | 59 ft | 5 kts | 120° |
| 2026-05-06 00:24 | 34.05792 | -120.33463 | 60 ft | 4 kts | 120° |
| 2026-05-06 00:24 | 34.05784 | -120.33453 | 35 ft | 3 kts | 120° |
| 2026-05-06 00:25 | 34.05780 | -120.33446 | 46 ft | 1 kts | 120° |
| 2026-05-06 00:25 | 34.05779 | -120.33410 | 71 ft | 5 kts | 120° |
| 2026-05-06 00:25 | 34.05773 | -120.33359 | 98 ft | 6 kts | 120° |
| 2026-05-06 00:25 | 34.05752 | -120.33319 | 126 ft | 5 kts | 120° |
| 2026-05-06 00:26 | 34.05730 | -120.33272 | 213 ft | 19 kts | 120° |
| 2026-05-06 00:26 | 34.05601 | -120.32735 | 510 ft | 93 kts | 111° |
| 2026-05-06 00:26 | 34.05377 | -120.31986 | 987 ft | 104 kts | 109° |
| 2026-05-06 00:26 | 34.05143 | -120.31004 | 1051 ft | 138 kts | 105° |
| 2026-05-06 00:27 | 34.04897 | -120.29826 | 952 ft | 149 kts | 105° |
| 2026-05-06 00:27 | 34.04640 | -120.28572 | 869 ft | 157 kts | 105° |